Time;durP1;ratioP1;P1;durP2;ratioP2;P2;SDS_P1;SDS_P2;PMS_P1;PMS_P2;Temp;Humidity;BMP_temperature;BMP_pressure;BME280_temperature;BME280_humidity;BME280_pressure;Samples;Min_cycle;Max_cycle;Signal;HPM_P1;HPM_P2
2021/10/13 00:00:38;;;;;;;8.00;6.60;;;8.30;99.90;;;;;;6258071;28;20475;-65
2021/10/13 00:03:41;;;;;;;10.80;8.83;;;8.30;99.90;;;;;;6269039;28;20486;-65
2021/10/13 00:06:45;;;;;;;11.97;8.90;;;8.20;99.90;;;;;;6275446;28;20850;-66
2021/10/13 00:09:48;;;;;;;14.77;11.57;;;8.20;99.90;;;;;;6274990;28;20475;-66
2021/10/13 00:12:52;;;;;;;11.20;8.07;;;8.20;99.90;;;;;;6236140;28;1122637;-65
2021/10/13 00:15:56;;;;;;;6.73;5.50;;;8.30;99.90;;;;;;6275668;28;20691;-65
2021/10/13 00:18:59;;;;;;;6.53;5.60;;;8.30;99.90;;;;;;6275890;28;20484;-66
2021/10/13 00:22:02;;;;;;;6.53;5.87;;;8.30;99.90;;;;;;6275253;28;20473;-65
2021/10/13 00:25:06;;;;;;;6.60;5.67;;;8.40;99.90;;;;;;6275420;28;20474;-65
2021/10/13 00:28:11;;;;;;;5.87;4.60;;;8.40;99.90;;;;;;6275370;28;20469;-66
2021/10/13 00:31:15;;;;;;;5.43;4.90;;;8.40;99.90;;;;;;6274897;28;20974;-65
2021/10/13 00:34:18;;;;;;;5.77;5.23;;;8.50;99.90;;;;;;6274985;28;20478;-65
2021/10/13 00:37:22;;;;;;;6.80;6.10;;;8.60;99.90;;;;;;6274856;28;20462;-65
2021/10/13 00:40:26;;;;;;;6.50;4.57;;;8.50;99.90;;;;;;6274734;28;20469;-65
2021/10/13 00:43:31;;;;;;;4.83;4.43;;;8.50;99.90;;;;;;6275263;28;20790;-65
2021/10/13 00:46:34;;;;;;;4.40;3.70;;;8.50;99.90;;;;;;6270300;28;20477;-66
2021/10/13 00:49:37;;;;;;;5.60;4.57;;;8.50;99.90;;;;;;6275553;28;20608;-66
2021/10/13 00:52:43;;;;;;;5.03;4.53;;;8.50;99.90;;;;;;6274877;28;20469;-65
2021/10/13 00:55:46;;;;;;;4.90;4.40;;;8.50;99.90;;;;;;6275469;28;20480;-65
2021/10/13 00:58:51;;;;;;;4.73;4.33;;;8.60;99.90;;;;;;6275091;28;20488;-66
2021/10/13 01:01:57;;;;;;;6.53;5.40;;;8.60;99.90;;;;;;6274832;28;20485;-65
2021/10/13 01:05:18;;;;;;;5.67;4.90;;;8.70;99.90;;;;;;6275064;28;20548;-65
2021/10/13 01:08:52;;;;;;;4.40;4.00;;;8.70;99.90;;;;;;6274620;28;20964;-66
2021/10/13 01:12:11;;;;;;;5.00;4.57;;;8.60;99.90;;;;;;6274748;28;20523;-66
2021/10/13 01:15:22;;;;;;;6.07;5.13;;;8.60;99.90;;;;;;6275566;28;20470;-66
2021/10/13 01:18:30;;;;;;;5.80;5.23;;;8.60;99.90;;;;;;6274952;28;20485;-66
2021/10/13 01:21:49;;;;;;;5.90;4.90;;;8.60;99.90;;;;;;6275016;28;20490;-66
2021/10/13 01:25:02;;;;;;;5.30;4.80;;;8.60;99.90;;;;;;6275141;28;20489;-66
2021/10/13 01:28:11;;;;;;;5.70;4.77;;;8.60;99.90;;;;;;6279999;28;20470;-66
2021/10/13 01:31:19;;;;;;;6.27;4.83;;;8.60;99.90;;;;;;6279081;28;20559;-66
2021/10/13 01:34:25;;;;;;;6.00;4.73;;;8.60;99.90;;;;;;6279737;28;20474;-66
2021/10/13 01:37:36;;;;;;;6.17;4.47;;;8.70;99.90;;;;;;6279811;28;20478;-66
2021/10/13 01:40:40;;;;;;;4.60;4.20;;;8.70;99.90;;;;;;6279548;28;20485;-66
2021/10/13 01:43:49;;;;;;;6.20;4.10;;;8.80;99.90;;;;;;6279486;28;20480;-66
2021/10/13 01:46:52;;;;;;;5.30;4.10;;;8.80;99.90;;;;;;6279476;28;20474;-66
2021/10/13 01:49:58;;;;;;;5.00;3.97;;;8.80;99.90;;;;;;6253835;28;20478;-66
2021/10/13 01:53:03;;;;;;;4.43;4.00;;;8.80;99.90;;;;;;6254715;28;20482;-66
2021/10/13 01:56:07;;;;;;;4.10;3.70;;;8.90;99.90;;;;;;6254388;28;20471;-66
2021/10/13 01:59:19;;;;;;;5.73;4.30;;;8.90;99.90;;;;;;6254137;28;20474;-66
2021/10/13 02:02:22;;;;;;;5.97;4.60;;;8.90;99.90;;;;;;6254838;28;20474;-65
2021/10/13 02:05:26;;;;;;;5.90;3.70;;;8.80;99.90;;;;;;6254271;28;20485;-66
2021/10/13 02:08:30;;;;;;;4.70;4.00;;;8.80;99.90;;;;;;6254944;28;20454;-66
2021/10/13 02:11:35;;;;;;;5.27;4.40;;;8.90;99.90;;;;;;6254156;28;20478;-66
2021/10/13 02:14:41;;;;;;;4.50;3.43;;;8.90;99.90;;;;;;6253877;28;20466;-66
2021/10/13 02:17:50;;;;;;;5.57;3.80;;;8.90;99.90;;;;;;6253418;28;20485;-66
2021/10/13 02:20:55;;;;;;;7.10;4.07;;;8.90;99.90;;;;;;6253450;28;20478;-65
2021/10/13 02:23:59;;;;;;;5.60;4.00;;;8.90;99.90;;;;;;6253199;28;20993;-65
2021/10/13 02:27:07;;;;;;;7.10;3.60;;;8.90;99.90;;;;;;6254193;28;20474;-65
2021/10/13 02:30:12;;;;;;;4.57;3.83;;;8.90;99.90;;;;;;6253011;28;20467;-65
2021/10/13 02:33:15;;;;;;;3.47;3.17;;;8.90;99.90;;;;;;6253488;28;20479;-65
2021/10/13 02:36:18;;;;;;;6.60;3.70;;;8.90;99.90;;;;;;6257827;28;20471;-66
2021/10/13 02:39:22;;;;;;;5.17;3.20;;;8.90;99.90;;;;;;6258449;28;20509;-66
2021/10/13 02:42:25;;;;;;;5.80;4.77;;;8.90;99.90;;;;;;6256026;28;20474;-65
2021/10/13 02:45:33;;;;;;;4.13;3.47;;;8.90;99.90;;;;;;6252995;28;20816;-65
2021/10/13 02:48:37;;;;;;;4.37;3.80;;;8.90;99.90;;;;;;6253517;28;20471;-65
2021/10/13 02:51:46;;;;;;;4.53;3.47;;;8.90;99.90;;;;;;6253042;28;20482;-65
2021/10/13 02:54:54;;;;;;;5.63;4.57;;;8.90;99.90;;;;;;6249297;28;20951;-65
2021/10/13 02:58:04;;;;;;;4.53;4.13;;;9.00;99.90;;;;;;6253153;28;20986;-65
2021/10/13 03:01:12;;;;;;;4.10;3.70;;;9.00;99.90;;;;;;6253611;28;20967;-65
2021/10/13 03:04:18;;;;;;;4.77;4.17;;;9.00;99.90;;;;;;6253206;28;20490;-65
2021/10/13 03:07:24;;;;;;;4.43;4.03;;;9.00;99.90;;;;;;6253190;28;20470;-65
2021/10/13 03:10:29;;;;;;;5.83;4.73;;;9.00;99.90;;;;;;6252928;28;20475;-65
2021/10/13 03:13:35;;;;;;;5.23;4.40;;;9.00;99.90;;;;;;6254264;28;20989;-65
2021/10/13 03:16:42;;;;;;;4.13;3.63;;;9.00;99.90;;;;;;6253485;28;20745;-66
2021/10/13 03:19:46;;;;;;;6.73;3.30;;;9.00;99.90;;;;;;6253197;28;20467;-66
2021/10/13 03:22:51;;;;;;;5.83;3.63;;;9.00;99.90;;;;;;6253123;28;20475;-66
2021/10/13 03:25:55;;;;;;;3.40;3.10;;;9.00;99.90;;;;;;6253624;28;20528;-66
2021/10/13 03:28:58;;;;;;;4.23;3.33;;;9.10;99.90;;;;;;6252817;28;20529;-66
2021/10/13 03:32:02;;;;;;;4.60;3.60;;;9.10;99.90;;;;;;6257479;28;20482;-65
2021/10/13 03:35:06;;;;;;;5.20;3.17;;;9.10;99.90;;;;;;6259236;28;21074;-65
2021/10/13 03:38:11;;;;;;;3.80;3.40;;;9.10;99.90;;;;;;6260349;28;20475;-66
2021/10/13 03:41:14;;;;;;;6.53;3.70;;;9.10;99.90;;;;;;6258959;28;20486;-65
2021/10/13 03:44:20;;;;;;;3.50;2.80;;;9.10;99.90;;;;;;6253352;28;20539;-65
2021/10/13 03:47:24;;;;;;;2.70;2.50;;;9.10;99.90;;;;;;6252053;28;20769;-66
2021/10/13 03:50:27;;;;;;;4.30;2.40;;;9.20;99.90;;;;;;6252225;28;20459;-66
2021/10/13 03:53:30;;;;;;;1.90;1.70;;;9.20;99.90;;;;;;6252552;28;20474;-66
2021/10/13 03:56:34;;;;;;;1.90;1.70;;;9.30;99.90;;;;;;6251780;28;20459;-66
2021/10/13 03:59:37;;;;;;;2.10;1.93;;;9.30;99.90;;;;;;6251873;28;20981;-66
2021/10/13 04:02:42;;;;;;;3.23;1.67;;;9.30;99.90;;;;;;6252408;28;20478;-65
2021/10/13 04:05:46;;;;;;;1.30;1.20;;;9.40;99.90;;;;;;6252214;28;21005;-65
2021/10/13 04:08:49;;;;;;;1.30;1.20;;;9.40;99.90;;;;;;6252461;28;20470;-65
2021/10/13 04:11:52;;;;;;;1.33;1.27;;;9.50;99.90;;;;;;6251741;28;20475;-64
2021/10/13 04:14:55;;;;;;;2.07;1.73;;;9.50;99.90;;;;;;6252221;28;20475;-65
2021/10/13 04:18:00;;;;;;;4.77;2.10;;;9.50;99.90;;;;;;6251601;28;20532;-65
2021/10/13 04:21:03;;;;;;;2.17;1.97;;;9.50;99.90;;;;;;6251704;28;20474;-66
2021/10/13 04:24:06;;;;;;;2.40;1.50;;;9.60;99.90;;;;;;6251081;28;20479;-66
2021/10/13 04:27:09;;;;;;;2.63;2.43;;;9.60;99.90;;;;;;6250975;28;20475;-65
2021/10/13 04:30:13;;;;;;;2.27;2.07;;;9.70;99.90;;;;;;6250830;28;20463;-65
2021/10/13 04:33:17;;;;;;;2.77;2.20;;;9.60;99.90;;;;;;6250712;28;20475;-65
2021/10/13 04:36:20;;;;;;;2.40;2.20;;;9.60;99.90;;;;;;6250517;28;20502;-65
2021/10/13 04:39:23;;;;;;;3.30;1.53;;;9.70;99.90;;;;;;6251069;28;20470;-65
2021/10/13 04:42:27;;;;;;;1.03;1.03;;;9.70;99.90;;;;;;6251157;28;20477;-64
2021/10/13 04:45:30;;;;;;;0.90;0.90;;;9.70;99.90;;;;;;6250561;28;20486;-65
2021/10/13 04:48:34;;;;;;;3.83;1.43;;;9.60;99.90;;;;;;6250888;28;20479;-66
2021/10/13 04:51:37;;;;;;;2.93;0.90;;;9.60;99.90;;;;;;6251124;28;20475;-64
2021/10/13 04:54:41;;;;;;;0.97;0.90;;;9.60;99.90;;;;;;6250659;28;20482;-65
2021/10/13 04:57:44;;;;;;;0.83;0.83;;;9.60;99.90;;;;;;6250867;28;20482;-65
2021/10/13 05:00:47;;;;;;;2.20;1.10;;;9.60;99.90;;;;;;6250302;28;20475;-64
2021/10/13 05:03:52;;;;;;;1.20;1.03;;;9.50;99.90;;;;;;6241114;28;21024;-64
2021/10/13 05:06:56;;;;;;;0.80;0.80;;;9.50;99.90;;;;;;6250638;28;20479;-64
2021/10/13 05:10:02;;;;;;;0.90;0.90;;;9.50;99.90;;;;;;6250026;28;20822;-64
2021/10/13 05:13:05;;;;;;;0.87;0.87;;;9.40;99.90;;;;;;6250009;28;20475;-64
2021/10/13 05:16:08;;;;;;;1.07;1.00;;;9.40;99.90;;;;;;6250328;28;20954;-65
2021/10/13 05:19:13;;;;;;;0.83;0.83;;;9.30;99.90;;;;;;6250190;28;20486;-65
2021/10/13 05:22:16;;;;;;;0.80;0.80;;;9.30;99.90;;;;;;6250362;28;20471;-65
2021/10/13 05:25:19;;;;;;;1.20;1.00;;;9.30;99.90;;;;;;6249585;28;20593;-65
2021/10/13 05:28:22;;;;;;;1.23;0.77;;;9.40;99.90;;;;;;6250188;28;20475;-65
2021/10/13 05:31:26;;;;;;;1.20;0.90;;;9.30;99.90;;;;;;6249574;28;20483;-65
2021/10/13 05:34:31;;;;;;;2.00;0.80;;;9.30;99.90;;;;;;6249863;28;20493;-65
2021/10/13 05:37:34;;;;;;;0.90;0.90;;;9.40;99.80;;;;;;6249816;28;20470;-65
2021/10/13 05:40:38;;;;;;;3.33;0.90;;;9.30;99.80;;;;;;6249695;28;20475;-66
2021/10/13 05:43:41;;;;;;;2.10;0.90;;;9.30;99.50;;;;;;6250484;28;20470;-64
2021/10/13 05:46:44;;;;;;;1.30;1.20;;;9.20;99.50;;;;;;6248896;28;20978;-64
2021/10/13 05:49:49;;;;;;;0.90;0.87;;;9.20;99.50;;;;;;6249273;28;20467;-63
2021/10/13 05:52:52;;;;;;;0.80;0.80;;;9.30;99.60;;;;;;6249966;28;20589;-63
2021/10/13 05:56:15;;;;;;;0.87;0.87;;;9.20;99.50;;;;;;6250336;28;20444;-64
2021/10/13 05:59:19;;;;;;;1.30;0.87;;;9.30;99.40;;;;;;6249265;28;20445;-63
2021/10/13 06:02:22;;;;;;;2.20;1.00;;;9.30;98.70;;;;;;6249661;28;20478;-64
2021/10/13 06:05:26;;;;;;;0.80;0.80;;;9.50;98.40;;;;;;6240195;28;20779;-64
2021/10/13 06:08:30;;;;;;;1.23;0.80;;;9.60;98.10;;;;;;6249660;28;20931;-64
2021/10/13 06:11:33;;;;;;;2.17;1.20;;;9.60;97.70;;;;;;6251309;28;20481;-64
2021/10/13 06:14:37;;;;;;;2.17;1.23;;;9.70;97.30;;;;;;6254345;28;20463;-64
2021/10/13 06:17:40;;;;;;;1.60;1.10;;;9.70;97.00;;;;;;6254940;28;20474;-64
2021/10/13 06:20:45;;;;;;;0.93;0.93;;;9.60;96.00;;;;;;6253947;28;20471;-64
2021/10/13 06:23:48;;;;;;;1.70;1.10;;;9.50;95.50;;;;;;6254025;28;20471;-63
2021/10/13 06:26:51;;;;;;;1.20;1.10;;;9.50;95.20;;;;;;6254047;28;20846;-63
2021/10/13 06:29:55;;;;;;;1.20;1.10;;;9.50;95.30;;;;;;6253724;28;20487;-63
2021/10/13 06:32:58;;;;;;;1.00;0.90;;;9.50;95.30;;;;;;6253326;28;20473;-63
2021/10/13 06:36:02;;;;;;;1.00;0.90;;;9.50;94.90;;;;;;6254198;28;20509;-63
2021/10/13 06:39:05;;;;;;;1.50;1.20;;;9.50;93.10;;;;;;6253316;28;20494;-63
2021/10/13 06:42:08;;;;;;;2.00;1.43;;;9.60;93.40;;;;;;6260995;28;20822;-63
2021/10/13 06:45:12;;;;;;;1.30;1.20;;;9.60;93.70;;;;;;6266664;28;20471;-63
2021/10/13 06:48:15;;;;;;;0.93;0.90;;;9.60;93.70;;;;;;6261030;28;20946;-64
2021/10/13 06:51:19;;;;;;;2.03;1.03;;;9.70;92.40;;;;;;6266004;28;20811;-63
2021/10/13 06:54:23;;;;;;;0.97;0.97;;;9.80;92.00;;;;;;6247501;28;20478;-63
2021/10/13 06:57:26;;;;;;;1.40;1.30;;;9.80;92.30;;;;;;6227910;28;20951;-64
2021/10/13 07:00:29;;;;;;;2.10;1.60;;;9.80;92.60;;;;;;6228360;28;20487;-64
2021/10/13 07:03:32;;;;;;;1.90;1.10;;;9.90;92.60;;;;;;6252011;28;20486;-64
2021/10/13 07:06:38;;;;;;;2.80;1.33;;;9.90;92.70;;;;;;6252864;28;20482;-65
2021/10/13 07:09:41;;;;;;;3.03;1.60;;;10.00;92.20;;;;;;6243761;28;20652;-65
2021/10/13 07:12:44;;;;;;;1.23;1.03;;;10.00;92.20;;;;;;6227677;28;20480;-64
2021/10/13 07:15:47;;;;;;;1.37;0.87;;;10.10;92.50;;;;;;6227653;28;20483;-64
2021/10/13 07:18:51;;;;;;;1.03;1.03;;;10.10;92.20;;;;;;6227304;28;20471;-64
2021/10/13 07:21:55;;;;;;;1.57;1.47;;;10.10;90.90;;;;;;6227813;28;20529;-65
2021/10/13 07:24:59;;;;;;;1.60;1.50;;;10.10;90.80;;;;;;6227323;28;20471;-68
2021/10/13 07:28:02;;;;;;;1.10;1.00;;;10.20;90.30;;;;;;6242676;28;20478;-63
2021/10/13 07:31:06;;;;;;;1.10;0.90;;;10.30;89.40;;;;;;6252316;28;20467;-63
2021/10/13 07:34:09;;;;;;;1.97;1.30;;;10.30;88.80;;;;;;6252206;28;20566;-63
2021/10/13 07:37:13;;;;;;;1.10;1.00;;;10.40;89.10;;;;;;6252174;28;20787;-65
2021/10/13 07:40:17;;;;;;;0.70;0.70;;;10.50;87.90;;;;;;6252571;28;20482;-65
2021/10/13 07:43:21;;;;;;;1.43;1.30;;;10.60;86.90;;;;;;6252251;28;20475;-67
2021/10/13 07:46:25;;;;;;;1.03;0.90;;;10.70;84.90;;;;;;6251848;28;20474;-68
2021/10/13 07:49:28;;;;;;;0.80;0.80;;;10.80;84.00;;;;;;6251968;28;20471;-68
2021/10/13 07:52:33;;;;;;;1.00;1.00;;;10.90;82.70;;;;;;6251147;28;20486;-66
2021/10/13 07:55:36;;;;;;;1.97;0.90;;;11.00;82.50;;;;;;6251039;28;20788;-65
2021/10/13 07:58:39;;;;;;;2.00;1.73;;;11.20;81.10;;;;;;6251378;28;20971;-67
2021/10/13 08:01:43;;;;;;;0.90;0.80;;;11.50;81.10;;;;;;6251110;28;20801;-66
2021/10/13 08:04:46;;;;;;;2.87;2.27;;;11.70;78.10;;;;;;6251333;28;20512;-65
2021/10/13 08:07:50;;;;;;;0.90;0.90;;;12.00;77.50;;;;;;6250498;28;20482;-66
2021/10/13 08:10:53;;;;;;;3.53;2.40;;;13.00;75.80;;;;;;6249486;28;20482;-66
2021/10/13 08:13:58;;;;;;;0.80;0.80;;;16.80;65.90;;;;;;6250388;28;20481;-66
2021/10/13 08:17:01;;;;;;;2.30;1.03;;;20.60;48.40;;;;;;6250285;28;20478;-67
2021/10/13 08:20:08;;;;;;;1.23;1.00;;;23.90;42.10;;;;;;6250225;28;20564;-67
2021/10/13 08:23:12;;;;;;;2.10;1.00;;;26.80;35.60;;;;;;6250128;28;20231;-68
2021/10/13 08:26:16;;;;;;;1.13;0.90;;;29.10;30.00;;;;;;6251189;28;20293;-68
2021/10/13 08:29:19;;;;;;;1.10;0.77;;;30.20;26.20;;;;;;6236575;28;20227;-69
2021/10/13 08:32:23;;;;;;;1.00;0.70;;;31.30;25.70;;;;;;6225707;28;20235;-68
2021/10/13 08:35:26;;;;;;;1.70;0.95;;;32.50;24.20;;;;;;6225596;28;20241;-68
2021/10/13 08:38:31;;;;;;;1.20;0.60;;;32.90;22.20;;;;;;6226055;28;20203;-69
2021/10/13 08:41:34;;;;;;;1.00;0.77;;;33.20;21.50;;;;;;6226289;28;20370;-66
2021/10/13 08:44:40;;;;;;;1.00;0.68;;;33.40;21.40;;;;;;6225679;28;20258;-66
2021/10/13 08:47:43;;;;;;;0.90;0.60;;;34.70;20.70;;;;;;6226259;28;20303;-66
2021/10/13 08:50:49;;;;;;;1.77;0.60;;;34.90;19.50;;;;;;6225479;28;20228;-65
2021/10/13 08:53:54;;;;;;;1.23;0.55;;;35.50;19.40;;;;;;6226385;28;20243;-65
2021/10/13 08:56:57;;;;;;;1.20;0.82;;;36.30;19.00;;;;;;6225950;28;20228;-65
2021/10/13 09:00:00;;;;;;;0.80;0.50;;;36.10;18.20;;;;;;6225959;28;20239;-65
2021/10/13 09:03:03;;;;;;;0.80;0.60;;;36.70;17.50;;;;;;6225528;28;20232;-65
2021/10/13 09:06:19;;;;;;;0.90;0.60;;;37.60;17.70;;;;;;6225877;28;20246;-65
2021/10/13 09:09:24;;;;;;;0.98;0.60;;;39.30;16.90;;;;;;6225696;28;20236;-65
2021/10/13 09:12:32;;;;;;;0.80;0.50;;;40.30;16.10;;;;;;6225492;28;20243;-66
2021/10/13 09:15:35;;;;;;;0.95;0.68;;;40.30;15.90;;;;;;6225406;28;20259;-66
2021/10/13 09:18:38;;;;;;;1.00;0.70;;;41.20;15.70;;;;;;6216460;28;20247;-65
2021/10/13 09:21:50;;;;;;;1.30;0.60;;;41.40;15.00;;;;;;6225428;28;20236;-67
2021/10/13 09:24:55;;;;;;;1.05;0.70;;;41.40;15.40;;;;;;6225303;28;20286;-66
2021/10/13 09:27:58;;;;;;;1.15;0.80;;;40.40;14.80;;;;;;6225333;28;20232;-65
2021/10/13 09:31:16;;;;;;;1.85;0.80;;;36.70;15.80;;;;;;6224953;28;20673;-65
2021/10/13 09:34:19;;;;;;;1.70;0.47;;;32.90;17.90;;;;;;6225322;28;20246;-65
2021/10/13 09:37:23;;;;;;;7.73;5.83;;;30.00;20.20;;;;;;6225716;28;20275;-65
2021/10/13 09:40:30;;;;;;;3.47;2.80;;;27.40;22.20;;;;;;6224089;28;20255;-66
2021/10/13 09:43:35;;;;;;;1.13;0.73;;;25.00;24.00;;;;;;6224813;28;20251;-66
2021/10/13 09:46:38;;;;;;;1.20;0.90;;;22.80;26.50;;;;;;6226504;28;20544;-65
2021/10/13 09:49:44;;;;;;;1.10;0.80;;;21.20;28.50;;;;;;6229896;28;20241;-64
2021/10/13 09:52:47;;;;;;;1.23;0.70;;;20.10;29.80;;;;;;6229406;28;20244;-65
2021/10/13 09:55:52;;;;;;;0.83;0.53;;;19.10;30.10;;;;;;6245925;28;20224;-66
2021/10/13 09:59:12;;;;;;;3.07;0.80;;;18.60;31.20;;;;;;6254048;28;20239;-64
2021/10/13 10:02:15;;;;;;;0.80;0.50;;;18.30;32.20;;;;;;6237988;28;20807;-65
2021/10/13 10:05:21;;;;;;;1.63;1.20;;;18.40;32.50;;;;;;6230296;28;20296;-63
2021/10/13 10:08:25;;;;;;;0.80;0.70;;;23.20;29.80;;;;;;6229334;28;20232;-63
2021/10/13 10:11:30;;;;;;;1.10;0.70;;;27.20;24.50;;;;;;6228928;28;20240;-64
2021/10/13 10:14:43;;;;;;;1.00;0.77;;;26.30;23.90;;;;;;6229244;28;20232;-67
2021/10/13 10:17:47;;;;;;;2.50;0.57;;;24.50;26.30;;;;;;6229254;28;20221;-63
2021/10/13 10:20:50;;;;;;;1.00;0.67;;;23.40;27.00;;;;;;6264210;28;20533;-66
2021/10/13 10:23:55;;;;;;;1.73;0.60;;;21.90;28.40;;;;;;6253562;28;20231;-65
2021/10/13 10:27:22;;;;;;;0.83;0.60;;;20.50;29.60;;;;;;6253530;28;20235;-66
2021/10/13 10:30:25;;;;;;;2.50;0.83;;;19.30;31.70;;;;;;6253593;28;20244;-66
2021/10/13 10:33:28;;;;;;;0.70;0.70;;;18.30;33.40;;;;;;6254010;28;20243;-65
2021/10/13 10:36:32;;;;;;;2.70;0.57;;;17.50;33.80;;;;;;6253052;28;20969;-65
2021/10/13 10:40:04;;;;;;;1.00;0.30;;;19.10;35.10;;;;;;6255943;28;20474;-66
2021/10/13 10:43:21;;;;;;;0.80;0.50;;;22.80;29.70;;;;;;6231863;28;20533;-66
2021/10/13 10:46:59;;;;;;;1.10;0.60;;;24.20;27.80;;;;;;6253082;28;20228;-66
2021/10/13 10:50:07;;;;;;;1.63;0.50;;;22.60;28.60;;;;;;6253232;28;20647;-64
2021/10/13 10:53:15;;;;;;;0.50;0.30;;;20.50;30.30;;;;;;6252885;28;20235;-64
2021/10/13 10:56:29;;;;;;;0.80;0.50;;;19.10;32.90;;;;;;6252627;28;20633;-64
2021/10/13 10:59:40;;;;;;;0.80;0.50;;;18.00;34.80;;;;;;6252782;28;20193;-66
2021/10/13 11:02:43;;;;;;;0.60;0.33;;;17.10;36.00;;;;;;6253039;28;20471;-63
2021/10/13 11:05:47;;;;;;;0.60;0.40;;;16.30;37.70;;;;;;6253432;28;20467;-65
2021/10/13 11:08:56;;;;;;;0.70;0.50;;;15.80;38.90;;;;;;6252338;28;20466;-64
2021/10/13 11:12:02;;;;;;;1.13;0.70;;;15.60;40.00;;;;;;6253264;28;20475;-64
2021/10/13 11:15:11;;;;;;;0.73;0.40;;;16.40;38.20;;;;;;6253145;28;20463;-63
2021/10/13 11:18:16;;;;;;;2.10;0.60;;;17.80;38.10;;;;;;6253249;28;20474;-64
2021/10/13 11:21:20;;;;;;;0.60;0.50;;;21.40;32.40;;;;;;6253769;28;20240;-64
2021/10/13 11:24:23;;;;;;;1.20;0.93;;;22.40;31.00;;;;;;6253597;28;20239;-63
2021/10/13 11:27:26;;;;;;;1.13;0.53;;;26.20;28.00;;;;;;6248379;28;20235;-61
2021/10/13 11:30:38;;;;;;;1.10;0.60;;;28.10;25.20;;;;;;6252714;28;20563;-63
2021/10/13 11:33:41;;;;;;;1.57;0.80;;;30.60;23.30;;;;;;6252664;28;20234;-65
2021/10/13 11:36:52;;;;;;;1.00;0.68;;;33.10;21.70;;;;;;6252589;28;20691;-65
2021/10/13 11:39:57;;;;;;;1.33;0.80;;;34.40;19.00;;;;;;6252745;28;20231;-66
2021/10/13 11:43:08;;;;;;;1.25;0.70;;;34.30;18.90;;;;;;6251827;28;20231;-66
2021/10/13 11:46:18;;;;;;;1.02;0.77;;;36.50;18.10;;;;;;6251807;28;20294;-65
2021/10/13 11:49:21;;;;;;;1.95;0.43;;;37.60;16.90;;;;;;6251585;28;20228;-65
2021/10/13 11:52:24;;;;;;;18.08;16.95;;;38.10;16.50;;;;;;6250545;28;20246;-66
2021/10/13 11:55:30;;;;;;;3.60;3.38;;;38.40;15.80;;;;;;6251857;28;20698;-64
2021/10/13 11:58:35;;;;;;;1.13;1.02;;;37.80;16.20;;;;;;6250982;28;20590;-67
2021/10/13 12:01:39;;;;;;;1.40;1.30;;;36.90;16.50;;;;;;6241218;28;20525;-65
2021/10/13 12:04:54;;;;;;;1.38;0.73;;;37.80;16.50;;;;;;6228743;28;20228;-66
2021/10/13 12:08:02;;;;;;;2.00;1.80;;;39.60;15.50;;;;;;6227792;28;20549;-65
2021/10/13 12:11:08;;;;;;;2.28;1.00;;;38.70;15.40;;;;;;6226278;28;20250;-64
2021/10/13 12:14:14;;;;;;;0.70;0.57;;;38.20;14.60;;;;;;6226965;28;20561;-66
2021/10/13 12:17:39;;;;;;;1.02;0.43;;;36.40;15.30;;;;;;6226827;28;20236;-63
2021/10/13 12:20:43;;;;;;;0.85;0.60;;;36.20;15.80;;;;;;6228185;28;20236;-66
2021/10/13 12:23:48;;;;;;;0.80;0.45;;;35.20;15.80;;;;;;6226525;28;20228;-67
2021/10/13 12:26:52;;;;;;;1.13;0.93;;;33.40;16.60;;;;;;6229054;28;20232;-65
2021/10/13 12:29:55;;;;;;;1.00;0.70;;;30.50;18.30;;;;;;6218065;28;20232;-65
2021/10/13 12:33:06;;;;;;;1.40;0.67;;;27.50;20.60;;;;;;6226001;28;20695;-65
2021/10/13 12:36:17;;;;;;;0.60;0.43;;;25.30;22.50;;;;;;6226465;28;20233;-64
2021/10/13 12:39:23;;;;;;;2.00;0.80;;;23.60;24.40;;;;;;6226447;28;20229;-61
2021/10/13 12:42:26;;;;;;;1.23;0.63;;;22.10;25.50;;;;;;6226894;28;20286;-63
2021/10/13 12:45:29;;;;;;;0.90;0.67;;;20.70;27.40;;;;;;6229125;28;20290;-64
2021/10/13 12:48:41;;;;;;;0.60;0.50;;;20.80;28.60;;;;;;6231469;28;20232;-63
2021/10/13 12:51:58;;;;;;;0.90;0.70;;;21.40;27.70;;;;;;6232462;28;20239;-64
2021/10/13 12:55:01;;;;;;;1.33;0.70;;;24.00;26.30;;;;;;6242473;28;20231;-65
2021/10/13 12:58:04;;;;;;;0.70;0.50;;;24.60;24.20;;;;;;6254466;28;20224;-64
2021/10/13 13:01:08;;;;;;;1.00;0.40;;;22.90;25.80;;;;;;6244467;28;20243;-64
2021/10/13 13:04:12;;;;;;;1.33;0.70;;;24.10;25.50;;;;;;6228991;28;20274;-64
2021/10/13 13:07:16;;;;;;;0.80;0.67;;;27.10;22.90;;;;;;6229932;28;20225;-64
2021/10/13 13:10:19;;;;;;;0.77;0.50;;;27.20;23.00;;;;;;6231195;28;20228;-65
2021/10/13 13:13:22;;;;;;;0.83;0.70;;;28.60;21.10;;;;;;6229843;28;20248;-64
2021/10/13 13:16:26;;;;;;;0.70;0.67;;;29.50;20.80;;;;;;6227220;28;20601;-65
2021/10/13 13:19:31;;;;;;;1.83;0.70;;;31.10;19.70;;;;;;6226431;28;20676;-65
2021/10/13 13:22:34;;;;;;;0.77;0.50;;;33.40;18.90;;;;;;6231939;28;20239;-65
2021/10/13 13:25:38;;;;;;;1.08;0.68;;;34.70;17.50;;;;;;6231637;28;20251;-65
2021/10/13 13:28:42;;;;;;;1.20;0.70;;;33.80;17.00;;;;;;6231689;28;20232;-66
2021/10/13 13:31:48;;;;;;;3.93;0.90;;;31.40;18.50;;;;;;6231099;28;20251;-65
2021/10/13 13:34:52;;;;;;;0.80;0.50;;;29.30;19.90;;;;;;6227779;28;20240;-65
2021/10/13 13:37:55;;;;;;;1.63;1.10;;;27.10;21.20;;;;;;6232321;28;20254;-63
2021/10/13 13:40:59;;;;;;;0.93;0.83;;;24.70;22.70;;;;;;6231276;28;20286;-66
2021/10/13 13:44:02;;;;;;;0.87;0.70;;;22.80;24.60;;;;;;6231061;28;20233;-64
2021/10/13 13:47:05;;;;;;;1.23;0.70;;;21.70;25.90;;;;;;6230599;28;20587;-66
2021/10/13 13:50:10;;;;;;;1.37;1.10;;;21.10;26.90;;;;;;6229625;28;20592;-62
2021/10/13 13:53:16;;;;;;;1.40;0.80;;;20.30;27.40;;;;;;6230006;28;20212;-64
2021/10/13 13:56:20;;;;;;;1.23;0.60;;;19.50;27.80;;;;;;6249841;28;20523;-63
2021/10/13 13:59:25;;;;;;;2.43;1.03;;;18.90;28.70;;;;;;6255636;28;20204;-64
2021/10/13 14:02:29;;;;;;;1.67;0.87;;;18.40;28.90;;;;;;6236766;28;20456;-64
2021/10/13 14:05:33;;;;;;;0.90;0.60;;;17.80;29.60;;;;;;6229343;28;20791;-63
2021/10/13 14:08:38;;;;;;;0.70;0.70;;;17.20;31.00;;;;;;6229535;28;20779;-63
2021/10/13 14:11:41;;;;;;;1.90;0.80;;;16.70;31.80;;;;;;6229287;28;20463;-62
2021/10/13 14:14:44;;;;;;;1.10;0.60;;;16.30;32.00;;;;;;6229410;28;20475;-63
2021/10/13 14:17:48;;;;;;;1.10;1.00;;;16.20;33.50;;;;;;6229898;28;20794;-65
2021/10/13 14:20:54;;;;;;;0.90;0.90;;;16.00;33.70;;;;;;6229473;28;20472;-64
2021/10/13 14:23:58;;;;;;;2.00;0.83;;;15.80;34.00;;;;;;6244857;28;20467;-65
2021/10/13 14:27:01;;;;;;;1.30;1.20;;;15.60;34.60;;;;;;6254061;28;20481;-64
2021/10/13 14:30:06;;;;;;;0.70;0.60;;;15.40;35.10;;;;;;6253275;28;20969;-65
2021/10/13 14:33:09;;;;;;;1.17;0.87;;;15.20;35.60;;;;;;6246496;28;20474;-64
2021/10/13 14:36:15;;;;;;;0.80;0.80;;;15.00;36.00;;;;;;6233457;28;20490;-64
2021/10/13 14:39:19;;;;;;;1.47;1.10;;;14.80;36.90;;;;;;6224811;28;20476;-65
2021/10/13 14:42:24;;;;;;;1.17;1.07;;;14.70;37.10;;;;;;6228190;28;20467;-64
2021/10/13 14:45:27;;;;;;;1.33;0.77;;;14.60;37.90;;;;;;6229155;28;20499;-64
2021/10/13 14:48:30;;;;;;;1.70;0.73;;;14.50;38.50;;;;;;6228457;28;20475;-68
2021/10/13 14:51:36;;;;;;;0.80;0.80;;;14.40;40.40;;;;;;6229134;28;20502;-65
2021/10/13 14:54:39;;;;;;;0.93;0.93;;;14.30;39.70;;;;;;6235104;28;20462;-64
2021/10/13 14:57:43;;;;;;;2.00;1.27;;;14.20;40.30;;;;;;6252951;28;20981;-64
2021/10/13 15:00:46;;;;;;;1.40;1.30;;;14.10;40.80;;;;;;6249074;28;20468;-63
2021/10/13 15:03:50;;;;;;;1.07;0.97;;;14.00;41.40;;;;;;6228703;28;20491;-63
2021/10/13 15:06:54;;;;;;;0.90;0.90;;;14.00;42.60;;;;;;6227880;28;20471;-64
2021/10/13 15:09:57;;;;;;;1.73;1.60;;;13.90;42.30;;;;;;6228283;28;20495;-66
2021/10/13 15:13:01;;;;;;;0.80;0.80;;;13.90;42.70;;;;;;6227692;28;20482;-63
2021/10/13 15:16:04;;;;;;;1.57;1.07;;;13.90;42.70;;;;;;6229141;28;20472;-64
2021/10/13 15:19:07;;;;;;;0.80;0.80;;;13.80;43.00;;;;;;6227823;28;20566;-64
2021/10/13 15:22:13;;;;;;;1.63;1.07;;;13.70;43.60;;;;;;6227964;28;20486;-65
2021/10/13 15:25:17;;;;;;;1.27;1.17;;;13.60;44.10;;;;;;6228203;28;20483;-63
2021/10/13 15:28:20;;;;;;;0.80;0.80;;;13.50;44.20;;;;;;6227419;28;20801;-64
2021/10/13 15:31:23;;;;;;;0.80;0.80;;;13.30;44.30;;;;;;6227330;28;20495;-65
2021/10/13 15:34:27;;;;;;;1.03;0.80;;;13.20;44.30;;;;;;6227358;28;20775;-65
2021/10/13 15:37:32;;;;;;;0.83;0.83;;;13.00;45.00;;;;;;6227814;28;20475;-65
2021/10/13 15:40:35;;;;;;;1.33;1.23;;;12.90;45.60;;;;;;6227203;28;20480;-63
2021/10/13 15:43:38;;;;;;;1.00;0.90;;;12.90;45.90;;;;;;6217291;28;20498;-64
2021/10/13 15:46:42;;;;;;;0.80;0.80;;;12.70;46.10;;;;;;6227250;28;20476;-64
2021/10/13 15:49:45;;;;;;;1.10;1.00;;;12.70;47.30;;;;;;6226944;28;20472;-64
2021/10/13 15:52:50;;;;;;;1.47;0.80;;;12.60;46.80;;;;;;6227126;28;20495;-64
2021/10/13 15:55:54;;;;;;;1.20;1.10;;;12.50;47.00;;;;;;6244248;28;20490;-64
2021/10/13 15:58:58;;;;;;;1.10;1.00;;;12.30;47.70;;;;;;6251125;28;20994;-64
2021/10/13 16:02:01;;;;;;;1.60;1.33;;;12.20;47.50;;;;;;6238005;28;20986;-68
2021/10/13 16:05:06;;;;;;;0.90;0.90;;;12.10;48.40;;;;;;6226947;28;20472;-67
2021/10/13 16:08:11;;;;;;;4.60;1.00;;;11.90;48.90;;;;;;6226939;28;20475;-65